Flight Track Log - Related Links

Times and Time Zones

All times are in EDT time to prevent confusion due to time zone crossing. See the N9810H flight status page for this flight to view local times or setup timezone preferences in your user account.

Time Position Orientation Groundspeed Altitude Reporting Facility
EDT Latitude Longitude Course Direction KTS MPH feet Rate Location/Type
Fri 05:23:47 PM 40.3880 -84.2850 332° Northwest 86 99  Level FlightAware ADS-B
Fri 05:24:06 PM 40.3950 -84.2900 331° Northwest 86 99 278 Level FlightAware ADS-B
Fri 05:24:22 PM 40.4000 -84.2930 335° Northwest 84 97 281 Level FlightAware ADS-B
Fri 05:24:40 PM 40.4070 -84.2970 336° Northwest 82 94 284 Level FlightAware ADS-B
Fri 05:25:02 PM 40.4150 -84.3020 335° Northwest 82 94 287 Level FlightAware ADS-B
Fri 05:25:32 PM 40.4250 -84.3090 332° Northwest 83 96 291 Level FlightAware ADS-B
Fri 05:25:52 PM 40.4320 -84.3130 336° Northwest 82 94 296 Level FlightAware ADS-B
Fri 05:26:23 PM 40.4420 -84.3190 335° Northwest 84 97 300 Level FlightAware ADS-B
Fri 05:27:35 PM 40.4690 -84.3380 332° Northwest 97 112 306 Level FlightAware ADS-B
Fri 05:28:11 PM 40.4820 -84.3460 335° Northwest 97 112 321 Level FlightAware ADS-B
Fri 05:28:37 PM 40.4980 -84.3560 335° Northwest 119 137 329 Level FlightAware ADS-B
Fri 05:28:55 PM 40.5070 -84.3620 333° Northwest 120 138 335 Level FlightAware ADS-B
Fri 05:29:01 PM 40.5100 -84.3640 333° Northwest 119 137 339 Level FlightAware ADS-B
Fri 05:29:16 PM 40.5150 -84.3700 318° Northwest 115 132 341 Level FlightAware ADS-B
Fri 05:29:39 PM 40.5250 -84.3820 318° Northwest 116 133 344 Level FlightAware ADS-B
Fri 05:30:01 PM 40.5340 -84.3940 315° West 118 136 350 Level FlightAware ADS-B
Fri 05:30:19 PM 40.5410 -84.4030 316° Northwest 116 133 356 Level FlightAware ADS-B
Fri 05:30:39 PM 40.5480 -84.4130 313° West 114 131 361 Level FlightAware ADS-B
Fri 05:30:59 PM 40.5560 -84.4230 316° Northwest 116 133 366 Level FlightAware ADS-B
Fri 05:31:21 PM 40.5640 -84.4340 314° West 118 136 372 Level FlightAware ADS-B
Fri 05:31:41 PM 40.5730 -84.4450 317° Northwest 122 140 379 Level FlightAware ADS-B
Fri 05:31:57 PM 40.5790 -84.4530 315° West 123 142 385 Level FlightAware ADS-B
Fri 05:32:17 PM 40.5850 -84.4620 311° West 119 137 390 Level FlightAware ADS-B
Fri 05:32:37 PM 40.5940 -84.4730 317° Northwest 114 131 396 Level FlightAware ADS-B
Fri 05:32:53 PM 40.6000 -84.4810 315° West 113 130 403 Level FlightAware ADS-B
Fri 05:33:13 PM 40.6070 -84.4910 313° West 115 132 409 Level FlightAware ADS-B
Fri 05:33:33 PM 40.6150 -84.5010 317° Northwest 118 136 416 Level FlightAware ADS-B
Fri 05:33:47 PM 40.6210 -84.5080 318° Northwest 118 136 423 Level FlightAware ADS-B
Fri 05:34:09 PM 40.6290 -84.5190 314° West 120 138 429 Level FlightAware ADS-B
Fri 05:34:29 PM 40.6370 -84.5290 317° Northwest 122 140 437 Level FlightAware ADS-B
Fri 05:34:53 PM 40.6470 -84.5420 315° West 123 142 445 Level FlightAware ADS-B
Fri 05:35:09 PM 40.6530 -84.5510 311° West 122 140 456 Level FlightAware ADS-B
Fri 05:35:27 PM 40.6600 -84.5600 316° Northwest 120 138 463 Level FlightAware ADS-B
Fri 05:35:47 PM 40.6670 -84.5700 313° West 118 136 471 Level FlightAware ADS-B
Fri 05:36:07 PM 40.6750 -84.5810 314° West 116 133 481 Level FlightAware ADS-B
Fri 05:36:19 PM 40.6790 -84.5870 311° West 114 131 491 Level FlightAware ADS-B
Fri 05:36:43 PM 40.6880 -84.5990 315° West 116 133 497 Level FlightAware ADS-B
Fri 05:37:05 PM 40.6960 -84.6100 314° West 115 132 510 Level FlightAware ADS-B
Fri 05:37:23 PM 40.7030 -84.6200 313° West 114 131 522 Level FlightAware ADS-B
Fri 05:37:42 PM 40.7100 -84.6280 319° Northwest 115 132 533 Level FlightAware ADS-B
Fri 05:38:04 PM 40.7180 -84.6400 311° West 117 135 544 Level FlightAware ADS-B
Fri 05:38:26 PM 40.7270 -84.6520 315° West 118 136 558 Level FlightAware ADS-B
Fri 05:38:48 PM 40.7350 -84.6640 311° West 117 135 573 Level FlightAware ADS-B
Fri 05:39:12 PM 40.7440 -84.6760 315° West 118 136 589 Level FlightAware ADS-B
Fri 05:39:32 PM 40.7510 -84.6860 313° West 117 135 607 Level FlightAware ADS-B
Fri 05:39:50 PM 40.7560 -84.6970 301° West 118 136 623 Level FlightAware ADS-B
Fri 05:40:12 PM 40.7620 -84.7110 300° West 118 136 638 Level FlightAware ADS-B
Fri 05:40:40 PM 40.7700 -84.7270 303° West 115 132 657 Level FlightAware ADS-B
Fri 05:40:58 PM 40.7750 -84.7380 301° West 116 133 684 Level FlightAware ADS-B
Fri 05:41:18 PM 40.7820 -84.7510 305° West 118 136 702 Level FlightAware ADS-B
Fri 05:41:30 PM 40.7850 -84.7580 300° West 117 135 724 Level FlightAware ADS-B
Fri 05:41:48 PM 40.7890 -84.7690 296° West 118 136 737 Level FlightAware ADS-B
Fri 05:42:14 PM 40.7950 -84.7860 295° West 115 132 758 Level FlightAware ADS-B
Fri 05:42:34 PM 40.8010 -84.7990 301° West 115 132 791 Level FlightAware ADS-B
Fri 05:42:54 PM 40.8060 -84.8120 297° West 115 132 819 Level FlightAware ADS-B
Fri 05:43:10 PM 40.8090 -84.8220 292° West 115 132 848 Level FlightAware ADS-B
Fri 05:43:30 PM 40.8120 -84.8350 287° West 114 131 873 Level FlightAware ADS-B
Fri 05:43:52 PM 40.8160 -84.8490 291° West 112 129 906 Level FlightAware ADS-B
Fri 05:44:12 PM 40.8200 -84.8620 292° West 113 130 946 Level FlightAware ADS-B
Fri 05:44:34 PM 40.8240 -84.8770 289° West 114 131 985 Level FlightAware ADS-B
Fri 05:44:54 PM 40.8280 -84.8900 292° West 116 133 1,033 Level FlightAware ADS-B
Fri 05:45:14 PM 40.8320 -84.9040 291° West 119 137 1,080 Level FlightAware ADS-B
Fri 05:45:34 PM 40.8360 -84.9170 292° West 118 136 1,131 Level FlightAware ADS-B
Fri 05:45:56 PM 40.8410 -84.9320 294° West 114 131 1,188 Level FlightAware ADS-B
Fri 05:46:16 PM 40.8450 -84.9450 292° West 117 135 1,257 Level FlightAware ADS-B
Fri 05:46:30 PM 40.8470 -84.9540 286° West 120 138 1,328 Level FlightAware ADS-B
Fri 05:46:54 PM 40.8520 -84.9690 294° West 103 119 1,382 Level FlightAware ADS-B
Fri 05:47:14 PM 40.8560 -84.9810 294° West 98 113 1,486 Level FlightAware ADS-B
Fri 05:47:34 PM 40.8590 -84.9910 292° West 92 106 1,585 Level FlightAware ADS-B
Fri 05:47:54 PM 40.8630 -85.0010 298° West 91 105 1,699 Level FlightAware ADS-B
Fri 05:48:14 PM 40.8660 -85.0120 290° West 104 120 1,830 Level FlightAware ADS-B
Fri 05:48:40 PM 40.8710 -85.0280 292° West 102 117 1,983 Level FlightAware ADS-B
Fri 05:48:52 PM 40.8730 -85.0350 291° West 102 117 2,225 Level FlightAware ADS-B
Fri 05:49:12 PM 40.8770 -85.0460 296° West 104 120 2,358 Level FlightAware ADS-B
Fri 05:49:37 PM 40.8810 -85.0580 294° West 104 120 2,619 Level FlightAware ADS-B
Fri 05:50:38 PM 40.9200 -85.0700 347° North 128 147 3,038 Level FlightAware ADS-B
Fri 05:51:05 PM 40.9330 -85.0750 344° North 128 147 4,989 Level FlightAware ADS-B
Fri 05:52:13 PM 40.9672 -85.0869 344° North 126 145 7,900 3,646 Climbing Chicago Center
Fri 05:53:15 PM 41.0019 -85.0975 347° North 127 146 7,900  Level Chicago Center
Fri 05:54:17 PM 41.0417 -85.1139 343° North 125 144 7,900 48 Level Chicago Center
Fri 05:55:19 PM 41.0758 -85.1267 344° North 126 145 8,000 48 Climbing Chicago Center
Fri 05:56:22 PM 41.1083 -85.1400 343° North 125 144 8,000 -48 Level Chicago Center
Fri 05:57:24 PM 41.1411 -85.1517 345° North 123 142 7,900 -48 Descending Chicago Center
Fri 05:58:26 PM 41.1736 -85.1625 346° North 122 140 7,900  Level Chicago Center
Fri 05:59:28 PM 41.2078 -85.1750 345° North 124 143 7,900 48 Level Chicago Center
Fri 06:00:30 PM 41.2494 -85.1925 342° North 129 148 8,000  Climbing Chicago Center
Fri 06:01:32 PM 41.2833 -85.2061 343° North 129 148 7,900 -48 Descending Chicago Center
Fri 06:02:34 PM 41.3192 -85.2186 345° North 131 151 7,900  Level Chicago Center
Fri 06:03:36 PM 41.3533 -85.2308 345° North 130 150 7,900  Level Chicago Center
Fri 06:04:38 PM 41.3864 -85.2453 342° North 128 147 7,900  Level Chicago Center
Fri 06:05:40 PM 41.4272 -85.2600 345° North 127 146 7,900 48 Level Chicago Center
Fri 06:06:43 PM 41.4606 -85.2731 344° North 126 145 8,000  Climbing Chicago Center
Fri 06:07:45 PM 41.4944 -85.2861 344° North 127 146 7,900  Descending Chicago Center
Fri 06:08:47 PM 41.5292 -85.2989 345° North 129 148 8,000 48 Climbing Chicago Center
Fri 06:09:49 PM 41.5636 -85.3117 344° North 129 148 8,000 -48 Level Chicago Center
Fri 06:10:51 PM 41.6050 -85.3278 344° North 130 150 7,900 -48 Descending Chicago Center
Fri 06:11:53 PM 41.6392 -85.3411 344° North 130 150 7,900  Level Chicago Center
Fri 06:12:55 PM 41.6739 -85.3544 344° North 131 151 7,900  Level Chicago Center
Fri 06:13:57 PM 41.7081 -85.3681 343° North 130 150 7,900  Level Chicago Center
Fri 06:14:59 PM 41.7431 -85.3814 344° North 131 151 7,900  Level Chicago Center
Fri 06:16:01 PM 41.7850 -85.3978 344° North 132 152 7,900 48 Level Chicago Center
Fri 06:17:04 PM 41.8197 -85.4111 344° North 131 151 8,000 48 Climbing Chicago Center
Fri 06:18:06 PM 41.8550 -85.4250 344° North 131 151 8,000 -29 Level Chicago Center
Fri 06:23:52 PM 42.0620 -85.5040 344° North 129 148 7,800 -16 Descending FlightAware ADS-B
Fri 06:24:32 PM 42.0850 -85.5130 344° North 126 145 7,900 100 Climbing FlightAware ADS-B
Fri 06:24:52 PM 42.0960 -85.5180 341° North 126 145 7,900  Level FlightAware ADS-B
Fri 06:25:22 PM 42.1130 -85.5240 345° North 123 142 7,900  Level FlightAware ADS-B
Fri 06:25:42 PM 42.1240 -85.5290 341° North 123 142 7,900  Level FlightAware ADS-B
Fri 06:26:02 PM 42.1340 -85.5330 343° North 123 142 7,900  Level FlightAware ADS-B
Fri 06:26:22 PM 42.1440 -85.5370 343° North 123 142 7,900  Level FlightAware ADS-B
Fri 06:26:52 PM 42.1630 -85.5440 345° North 128 147 7,900 -120 Level FlightAware ADS-B
Fri 06:27:12 PM 42.1730 -85.5480 343° North 128 147 7,800 -150 Descending FlightAware ADS-B
Fri 06:27:32 PM 42.1850 -85.5520 346° North 126 145 7,800  Level FlightAware ADS-B
Fri 06:27:57 PM 42.1990 -85.5580 342° North 123 142 7,800  Level FlightAware ADS-B
Fri 06:28:18 PM 42.2100 -85.5620 345° North 123 142 7,800  Level FlightAware ADS-B
Fri 06:28:38 PM 42.2200 -85.5660 343° North 123 142 7,800  Level FlightAware ADS-B
Fri 06:28:52 PM 42.2280 -85.5690 344° North 123 142 7,800 353 Level FlightAware ADS-B
Fri 06:29:12 PM 42.2390 -85.5730 345° North 106 122 8,000 800 Climbing FlightAware ADS-B
Fri 06:29:37 PM 42.2490 -85.5770 344° North 82 94 8,400 800 Climbing FlightAware ADS-B
Fri 06:29:57 PM 42.2550 -85.5790 346° North 77 89 8,600 600 Climbing FlightAware ADS-B
Fri 06:30:07 PM 42.2590 -85.5810 340° North 76 87 8,700 514 Climbing FlightAware ADS-B
Fri 06:30:32 PM 42.2680 -85.5850 342° North 80 92 8,900 343 Climbing FlightAware ADS-B
Fri 06:30:42 PM 42.2720 -85.5860 350° North 86 99 8,900  Level FlightAware ADS-B
Fri 06:31:03 PM 42.2800 -85.5900 340° North 105 121 8,900  Level FlightAware ADS-B
Fri 06:31:22 PM 42.2910 -85.5940 345° North 114 131 8,900  Level FlightAware ADS-B
Fri 06:31:47 PM 42.3030 -85.5990 343° North 118 136 8,900  Level FlightAware ADS-B
Fri 06:31:57 PM 42.3090 -85.6010 346° North 121 139 8,900  Level FlightAware ADS-B
Fri 06:32:22 PM 42.3230 -85.6060 345° North 125 144 8,900  Level FlightAware ADS-B
Fri 06:32:42 PM 42.3330 -85.6100 344° North 125 144 8,900  Level FlightAware ADS-B
Fri 06:33:03 PM 42.3440 -85.6150 341° North 126 145 8,900  Level FlightAware ADS-B
Fri 06:33:17 PM 42.3540 -85.6180 347° North 127 146 8,900  Level FlightAware ADS-B
Fri 06:33:42 PM 42.3670 -85.6240 341° North 129 148 8,900  Level FlightAware ADS-B
Fri 06:33:57 PM 42.3740 -85.6270 342° North 129 148 8,900  Level FlightAware ADS-B
Fri 06:34:12 PM 42.3830 -85.6300 346° North 129 148 8,900  Level FlightAware ADS-B
Fri 06:34:42 PM 42.4020 -85.6370 345° North 126 145 8,900  Level FlightAware ADS-B
Fri 06:35:02 PM 42.4130 -85.6420 341° North 126 145 8,900  Level FlightAware ADS-B
Fri 06:35:35 PM 42.4270 -85.6470 345° North 126 145 8,900  Level FlightAware ADS-B
Fri 06:35:59 PM 42.4390 -85.6520 343° North 126 145 8,900  Level FlightAware ADS-B
Fri 06:36:23 PM 42.4500 -85.6560 345° North 126 145 8,900  Level FlightAware ADS-B
Fri 06:36:48 PM 42.4620 -85.6610 343° North 126 145 8,900 -36 Level FlightAware ADS-B
Fri 06:40:36 PM 42.6080 -85.7250 342° North 109 125 -36 Descending FlightAware ADS-B
Fri 06:40:55 PM 42.6140 -85.7370 304° West 111 128 383 Level FlightAware ADS-B
Fri 06:41:16 PM 42.6200 -85.7490 304° West 112 129 389 Level FlightAware ADS-B
Fri 06:41:35 PM 42.6260 -85.7600 307° West 115 132 396 Level FlightAware ADS-B
Fri 06:41:51 PM 42.6310 -85.7690 307° West 117 135 402 Level FlightAware ADS-B
Fri 06:42:13 PM 42.6380 -85.7820 306° West 115 132 407 Level FlightAware ADS-B
Fri 06:42:28 PM 42.6430 -85.7900 310° West 117 135 415 Level FlightAware ADS-B
Fri 06:42:49 PM 42.6500 -85.8030 306° West 114 131 421 Level FlightAware ADS-B
Fri 06:43:09 PM 42.6560 -85.8140 307° West 114 131 429 Level FlightAware ADS-B
Fri 06:43:19 PM 42.6600 -85.8200 312° West 114 131 436 Level FlightAware ADS-B
Fri 06:43:40 PM 42.6660 -85.8310 307° West 112 129 440 Level FlightAware ADS-B
Fri 06:44:10 PM 42.6750 -85.8480 306° West 113 130 449 Level FlightAware ADS-B
Fri 06:44:38 PM 42.6840 -85.8630 309° West 112 129 462 Level FlightAware ADS-B
Fri 06:44:57 PM 42.6900 -85.8750 304° West 111 128 475 Level FlightAware ADS-B
Fri 06:45:13 PM 42.6950 -85.8830 310° West 111 128 484 Level FlightAware ADS-B
Fri 06:45:34 PM 42.7010 -85.8940 307° West 113 130 492 Level FlightAware ADS-B
Fri 06:45:57 PM 42.7100 -85.9090 309° West 113 130 503 Level FlightAware ADS-B
Fri 06:46:18 PM 42.7150 -85.9190 304° West 113 130 515 Level FlightAware ADS-B
Fri 06:46:34 PM 42.7200 -85.9280 307° West 114 131 527 Level FlightAware ADS-B
Fri 06:47:17 PM 42.7340 -85.9510 310° West 115 132 536 Level FlightAware ADS-B
Fri 06:47:49 PM 42.7450 -85.9720 306° West 114 131 563 Level FlightAware ADS-B
Fri 06:48:20 PM 42.7540 -85.9870 309° West 115 132 585 Level FlightAware ADS-B
Fri 06:49:19 PM 42.7750 -86.0240 308° West 114 131 608 Level FlightAware ADS-B
Fri 06:49:41 PM 42.7810 -86.0360 304° West 111 128 658 Level FlightAware ADS-B
Fri 06:49:56 PM 42.7860 -86.0450 307° West 112 129 678 Level FlightAware ADS-B
Fri 06:50:21 PM 42.7930 -86.0570 308° West 112 129 693 Level FlightAware ADS-B
Fri 06:50:44 PM 42.8010 -86.0720 306° West 115 132 719 Level FlightAware ADS-B
Fri 06:51:09 PM 42.8080 -86.0850 306° West 115 132 744 Level FlightAware ADS-B
Fri 07:01:29 PM 43.0083 -86.4450 306° West 117 135 8,000 704 Climbing Chicago Center
Fri 07:02:31 PM 43.0292 -86.4792 310° West 116 133 8,000 -48 Level Chicago Center
Fri 07:03:33 PM 43.0506 -86.5208 305° West 113 130 7,900 -48 Descending Chicago Center
Fri 07:04:35 PM 43.0692 -86.5539 308° West 109 125 7,900  Level Chicago Center
Fri 07:05:37 PM 43.0872 -86.5861 308° West 107 123 7,900  Level Chicago Center
Fri 07:06:39 PM 43.1042 -86.6181 306° West 105 121 7,900  Level Chicago Center
Fri 07:07:41 PM 43.1219 -86.6497 308° West 105 121 7,900  Level Chicago Center
Fri 07:08:42 PM 43.1394 -86.6825 306° West 105 121 7,900  Level Chicago Center
Fri 07:09:44 PM 43.1567 -86.7139 307° West 105 121 7,900  Level Chicago Center
Fri 07:10:46 PM 43.1781 -86.7528 307° West 106 122 7,900 -48 Level Chicago Center
Fri 07:11:48 PM 43.1956 -86.7847 307° West 104 120 7,800 -48 Descending Chicago Center
Fri 07:12:50 PM 43.2128 -86.8175 306° West 106 122 7,800  Level Chicago Center
Fri 07:13:52 PM 43.2308 -86.8486 309° West 105 121 7,800  Level Chicago Center
Fri 07:14:54 PM 43.2481 -86.8806 307° West 105 121 7,800  Level Chicago Center
Fri 07:15:56 PM 43.2650 -86.9117 307° West 102 117 7,800 48 Level Chicago Center
Fri 07:16:58 PM 43.2861 -86.9508 307° West 105 121 7,900  Climbing Chicago Center
Fri 07:18:00 PM 43.3042 -86.9817 309° West 104 120 7,800  Descending Chicago Center
Fri 07:19:02 PM 43.3217 -87.0144 306° West 107 123 7,900 48 Climbing Chicago Center
Fri 07:20:04 PM 43.3397 -87.0467 308° West 106 122 7,900  Level Chicago Center
Fri 07:21:06 PM 43.3572 -87.0797 306° West 107 123 7,900  Level Chicago Center
Fri 07:22:08 PM 43.3753 -87.1133 306° West 108 124 7,900 48 Level Chicago Center
Fri 07:23:10 PM 43.3964 -87.1533 306° West 108 124 8,000 48 Climbing Chicago Center
Fri 07:24:12 PM 43.4147 -87.1864 307° West 108 124 8,000  Level Chicago Center
Fri 07:25:14 PM 43.4233 -87.2231 288° West 102 117 8,000  Level Chicago Center
Fri 07:26:16 PM 43.4281 -87.2625 279° West 104 120 8,000  Level Chicago Center
Fri 07:27:18 PM 43.4342 -87.3025 282° West 107 123 8,000  Level Chicago Center
Fri 07:28:20 PM 43.4397 -87.3394 282° West 101 116 8,000  Level Chicago Center
Fri 07:29:22 PM 43.4450 -87.3825 280° West 103 119 8,000  Level Chicago Center
Fri 07:30:24 PM 43.4508 -87.4225 281° West 107 123 8,000  Level Chicago Center
Fri 07:31:26 PM 43.4569 -87.4694 280° West 103 119 8,000  Level Chicago Center
Fri 07:32:28 PM 43.4636 -87.5108 283° West 109 125 8,000  Level Chicago Center
Fri 07:33:30 PM 43.4683 -87.5511 279° West 107 123 8,000  Level Chicago Center
Fri 07:34:32 PM 43.4736 -87.5917 280° West 108 124 8,000  Level Chicago Center
Fri 07:35:34 PM 43.4792 -87.6314 281° West 105 121 8,000  Level Chicago Center
Fri 07:36:36 PM 43.4847 -87.6717 281° West 106 122 8,000  Level Chicago Center
Fri 07:37:38 PM 43.4914 -87.7200 281° West 106 122 8,000  Level Chicago Center
Fri 07:38:40 PM 43.4972 -87.7611 281° West 108 124 8,000  Level Chicago Center
Fri 07:39:42 PM 43.5022 -87.8022 280° West 110 127 8,000  Level Chicago Center
Fri 07:40:44 PM 43.5075 -87.8436 280° West 110 127 8,000  Level Chicago Center
Fri 07:41:46 PM 43.5136 -87.8847 282° West 109 125 8,000  Level Chicago Center
Fri 07:42:48 PM 43.5189 -87.9275 280° West 113 130 8,000 -145 Level Chicago Center
Fri 07:43:50 PM 43.5264 -87.9769 282° West 112 129 7,700 -387 Descending Chicago Center
Fri 07:44:52 PM 43.5322 -88.0214 280° West 116 133 7,200 -484 Descending Chicago Center
Fri 07:45:54 PM 43.5375 -88.0639 280° West 114 131 6,700 -581 Descending Chicago Center
Fri 07:46:56 PM 43.5431 -88.1042 281° West 109 125 6,000 -672 Descending Chicago Center
Fri 07:47:59 PM 43.5478 -88.1453 279° West 108 124 5,300 -720 Descending Chicago Center
Fri 07:49:01 PM 43.5539 -88.1878 281° West 111 128 4,500 -823 Descending Chicago Center
Fri 07:50:03 PM 43.5617 -88.2442 281° West 119 137 3,600 -677 Descending Chicago Center
Fri 07:51:05 PM 43.5681 -88.2953 280° West 128 147 3,100 -290 Descending Chicago Center
Fri 07:52:07 PM 43.5736 -88.3411 280° West 127 146 3,000 -48 Descending Chicago Center
Fri 07:53:09 PM 43.5756 -88.3778 274° West 111 128 3,000  Level Chicago Center
Fri 07:54:11 PM 43.5758 -88.4156 271° West 103 119 3,000  Level Chicago Center
Fri 07:55:13 PM 43.5758 -88.4633 270° West 103 119 3,000  Level Chicago Center
Fri 07:56:15 PM 43.5897 -88.4922 304° West 108 124 3,000  Level Chicago Center
Fri 07:57:17 PM 43.6150 -88.4881 North 99 114 3,000  Level Chicago Center
Fri 07:58:19 PM 43.6414 -88.4886 359° North 96 110 3,000 -190 Level Chicago Center
Fri 07:59:23 PM 43.6725 -88.4875 North 94 108 2,600 -381 Descending Chicago Center
Fri 08:00:25 PM 43.6956 -88.4861 North 89 102 2,200 -387 Descending Chicago Center
Fri 08:01:27 PM 43.7181 -88.4861 360° North 85 98 1,800 -387 Descending Chicago Center
Fri 08:02:29 PM 43.7381 -88.4864 359° North 78 90 1,400 -387 Descending Chicago Center
Fri 08:03:31 PM 43.7594 -88.4867 359° North 75 86 1,000 -136 Descending Chicago Center
Fri 08:05:26 PM 43.7667 -88.4833 18° North 71 82 1,000  Level KMKE
Fri 08:07:26 PM 43.7667 -88.4833 216° Southwest 71 82 1,000  Level KMKE

Login

Don't have an account? Register now (free) for customized features, flight alerts, and more!